LRI4LW OMDB-FAOR
Flight info
| Callsign | LRI4LW |
|---|---|
| Flight time | N/A |
| Altitude | 29000 |
| Route | ANVIX L223 TARDI N629 BOTAM Y855 LAKLU/N0504F280 Q204 HAI B400 VEDET UL437 AVEDA/N0517F300 UL437 DV UM310 ITKED/N0511F320 UM310 VBR UM307 EPSEK UZ33 NESAG UZ7 OKPIT OKPIT1C |
| Aircraft | B77L/H-SDE1E2E3FGHIJ2J3J4J5M1RWXY/LB1D1 |
Departure
| Time | 2026-04-20 07:03 |
|---|---|
| Airport | Dubai International Airport (OMDB) |
Arrival
| Time | N/A |
|---|---|
| Airport | O.R. Tambo International Airport (FAOR) |
| Time | Latitude | Longitude | Altitude | Speed | Heading |
|---|---|---|---|---|---|
| 2026-04-20 06:36 | 25.25914 | 55.36732 | 28 ft | 0 kts | 30° |
| 2026-04-20 06:55 | 25.25895 | 55.36719 | 28 ft | 4 kts | 36° |
| 2026-04-20 06:55 | 25.25876 | 55.36702 | 23 ft | 3 kts | 47° |
| 2026-04-20 06:55 | 25.25866 | 55.36687 | 28 ft | 2 kts | 72° |
| 2026-04-20 06:55 | 25.25864 | 55.36672 | 27 ft | 2 kts | 98° |
| 2026-04-20 06:56 | 25.25866 | 55.36660 | 28 ft | 2 kts | 112° |
| 2026-04-20 06:56 | 25.25871 | 55.36648 | 27 ft | 2 kts | 119° |
| 2026-04-20 06:56 | 25.25876 | 55.36638 | 28 ft | 2 kts | 121° |
| 2026-04-20 06:56 | 25.25877 | 55.36637 | 28 ft | 0 kts | 122° |
| 2026-04-20 06:58 | 25.25871 | 55.36647 | 25 ft | 2 kts | 122° |
| 2026-04-20 06:58 | 25.25859 | 55.36669 | 27 ft | 5 kts | 122° |
| 2026-04-20 06:58 | 25.25831 | 55.36718 | 29 ft | 10 kts | 122° |
| 2026-04-20 06:58 | 25.25787 | 55.36793 | 30 ft | 14 kts | 123° |
| 2026-04-20 06:59 | 25.25733 | 55.36896 | 30 ft | 18 kts | 116° |
| 2026-04-20 06:59 | 25.25670 | 55.37028 | 31 ft | 21 kts | 121° |
| 2026-04-20 06:59 | 25.25586 | 55.37174 | 32 ft | 24 kts | 123° |
| 2026-04-20 06:59 | 25.25491 | 55.37330 | 33 ft | 24 kts | 124° |
| 2026-04-20 07:00 | 25.25403 | 55.37490 | 34 ft | 24 kts | 119° |
| 2026-04-20 07:00 | 25.25316 | 55.37651 | 35 ft | 24 kts | 122° |
| 2026-04-20 07:00 | 25.25228 | 55.37812 | 36 ft | 24 kts | 121° |
| 2026-04-20 07:00 | 25.25140 | 55.37972 | 37 ft | 24 kts | 121° |
| 2026-04-20 07:01 | 25.25052 | 55.38133 | 38 ft | 24 kts | 121° |
| 2026-04-20 07:01 | 25.24953 | 55.38245 | 39 ft | 18 kts | 160° |
| 2026-04-20 07:01 | 25.24849 | 55.38318 | 43 ft | 18 kts | 125° |
| 2026-04-20 07:01 | 25.24785 | 55.38437 | 43 ft | 18 kts | 120° |
| 2026-04-20 07:02 | 25.24699 | 55.38533 | 47 ft | 18 kts | 156° |
| 2026-04-20 07:02 | 25.24578 | 55.38557 | 47 ft | 18 kts | 197° |
| 2026-04-20 07:02 | 25.24578 | 55.38425 | 49 ft | 29 kts | 300° |
| 2026-04-20 07:02 | 25.24775 | 55.38075 | 45 ft | 88 kts | 302° |
| 2026-04-20 07:03 | 25.25218 | 55.37279 | 43 ft | 153 kts | 301° |
| 2026-04-20 07:03 | 25.25872 | 55.36095 | 85 ft | 200 kts | 300° |
| 2026-04-20 07:03 | 25.26571 | 55.34800 | 643 ft | 200 kts | 300° |
| 2026-04-20 07:03 | 25.27300 | 55.33482 | 1165 ft | 203 kts | 301° |
| 2026-04-20 07:04 | 25.28046 | 55.32156 | 1639 ft | 204 kts | 302° |
| 2026-04-20 07:04 | 25.28792 | 55.30826 | 2138 ft | 202 kts | 302° |
| 2026-04-20 07:04 | 25.29301 | 55.29380 | 2503 ft | 207 kts | 269° |
| 2026-04-20 07:04 | 25.28906 | 55.27866 | 2822 ft | 209 kts | 245° |
| 2026-04-20 07:05 | 25.28263 | 55.26392 | 3070 ft | 216 kts | 246° |
| 2026-04-20 07:05 | 25.27636 | 55.24916 | 3674 ft | 207 kts | 246° |
| 2026-04-20 07:05 | 25.27020 | 55.23478 | 4039 ft | 207 kts | 246° |
| 2026-04-20 07:05 | 25.26407 | 55.22043 | 4348 ft | 207 kts | 247° |
| 2026-04-20 07:06 | 25.25781 | 55.20577 | 4529 ft | 218 kts | 247° |
| 2026-04-20 07:06 | 25.25116 | 55.19012 | 4684 ft | 231 kts | 247° |
| 2026-04-20 07:06 | 25.24271 | 55.17472 | 4875 ft | 245 kts | 223° |
| 2026-04-20 07:06 | 25.22738 | 55.16622 | 5125 ft | 257 kts | 188° |
| 2026-04-20 07:07 | 25.20922 | 55.16668 | 5436 ft | 265 kts | 176° |
| 2026-04-20 07:07 | 25.19128 | 55.17161 | 5780 ft | 272 kts | 149° |
| 2026-04-20 07:07 | 25.17762 | 55.18612 | 6072 ft | 280 kts | 119° |
| 2026-04-20 07:07 | 25.16834 | 55.20532 | 6325 ft | 288 kts | 117° |
| 2026-04-20 07:08 | 25.15893 | 55.22510 | 6811 ft | 292 kts | 117° |
| 2026-04-20 07:08 | 25.14941 | 55.24499 | 7370 ft | 294 kts | 117° |
| 2026-04-20 07:08 | 25.13991 | 55.26477 | 7883 ft | 297 kts | 117° |
| 2026-04-20 07:08 | 25.13020 | 55.28505 | 8395 ft | 299 kts | 117° |
| 2026-04-20 07:09 | 25.12042 | 55.30542 | 8928 ft | 302 kts | 117° |
| 2026-04-20 07:09 | 25.11053 | 55.32596 | 9442 ft | 304 kts | 117° |
| 2026-04-20 07:09 | 25.10105 | 55.34691 | 9965 ft | 306 kts | 113° |
| 2026-04-20 07:09 | 25.09232 | 55.36835 | 10451 ft | 307 kts | 112° |
| 2026-04-20 07:10 | 25.08357 | 55.39000 | 10980 ft | 309 kts | 113° |
| 2026-04-20 07:10 | 25.07474 | 55.41166 | 11517 ft | 311 kts | 113° |
| 2026-04-20 07:10 | 25.06599 | 55.43369 | 11914 ft | 320 kts | 112° |
| 2026-04-20 07:10 | 25.05710 | 55.45696 | 12036 ft | 338 kts | 112° |
| 2026-04-20 07:11 | 25.04776 | 55.48150 | 12186 ft | 356 kts | 112° |
| 2026-04-20 07:11 | 25.03789 | 55.50727 | 12333 ft | 374 kts | 112° |
| 2026-04-20 07:11 | 25.02749 | 55.53426 | 12523 ft | 389 kts | 112° |
| 2026-04-20 07:11 | 25.01649 | 55.56196 | 12904 ft | 399 kts | 116° |
| 2026-04-20 07:12 | 25.00287 | 55.58884 | 13427 ft | 404 kts | 121° |
| 2026-04-20 07:12 | 24.98803 | 55.61481 | 13989 ft | 407 kts | 122° |
| 2026-04-20 07:12 | 24.97287 | 55.64137 | 14547 ft | 409 kts | 121° |
| 2026-04-20 07:12 | 24.95807 | 55.66820 | 15087 ft | 411 kts | 121° |
| 2026-04-20 07:13 | 24.94333 | 55.69537 | 15601 ft | 415 kts | 121° |
| 2026-04-20 07:13 | 24.92754 | 55.72212 | 16090 ft | 418 kts | 125° |
| 2026-04-20 07:13 | 24.91023 | 55.74798 | 16601 ft | 421 kts | 127° |
| 2026-04-20 07:13 | 24.89242 | 55.77381 | 17124 ft | 424 kts | 127° |
| 2026-04-20 07:14 | 24.87470 | 55.79983 | 17629 ft | 427 kts | 127° |
| 2026-04-20 07:14 | 24.85703 | 55.82626 | 18152 ft | 430 kts | 127° |
| 2026-04-20 07:14 | 24.83937 | 55.85289 | 18564 ft | 433 kts | 127° |
| 2026-04-20 07:14 | 24.82136 | 55.87971 | 18968 ft | 436 kts | 127° |
| 2026-04-20 07:15 | 24.80339 | 55.90619 | 19377 ft | 439 kts | 127° |
| 2026-04-20 07:15 | 24.78496 | 55.93330 | 19766 ft | 443 kts | 128° |
| 2026-04-20 07:15 | 24.76478 | 55.95901 | 20118 ft | 445 kts | 136° |
| 2026-04-20 07:15 | 24.74218 | 55.98248 | 20493 ft | 448 kts | 139° |
| 2026-04-20 07:16 | 24.71867 | 56.00524 | 20896 ft | 451 kts | 140° |
| 2026-04-20 07:16 | 24.69507 | 56.02815 | 21283 ft | 454 kts | 139° |
| 2026-04-20 07:16 | 24.67156 | 56.05155 | 21686 ft | 457 kts | 139° |
| 2026-04-20 07:16 | 24.64819 | 56.07536 | 22095 ft | 460 kts | 138° |
| 2026-04-20 07:17 | 24.62475 | 56.09950 | 22484 ft | 463 kts | 138° |
| 2026-04-20 07:17 | 24.60112 | 56.12387 | 22863 ft | 466 kts | 138° |
| 2026-04-20 07:17 | 24.57780 | 56.14814 | 23235 ft | 470 kts | 136° |
| 2026-04-20 07:17 | 24.55571 | 56.17478 | 23578 ft | 474 kts | 130° |
| 2026-04-20 07:18 | 24.53524 | 56.20334 | 23903 ft | 476 kts | 129° |
| 2026-04-20 07:18 | 24.51488 | 56.23215 | 24258 ft | 477 kts | 129° |
| 2026-04-20 07:18 | 24.49451 | 56.26098 | 24609 ft | 479 kts | 129° |
| 2026-04-20 07:18 | 24.47398 | 56.28988 | 24972 ft | 480 kts | 129° |
| 2026-04-20 07:19 | 24.45331 | 56.31881 | 25325 ft | 481 kts | 129° |
| 2026-04-20 07:19 | 24.43282 | 56.34736 | 25649 ft | 483 kts | 129° |
| 2026-04-20 07:19 | 24.41189 | 56.37643 | 25951 ft | 486 kts | 129° |
| 2026-04-20 07:19 | 24.39085 | 56.40561 | 26261 ft | 488 kts | 129° |
| 2026-04-20 07:20 | 24.36975 | 56.43486 | 26594 ft | 490 kts | 129° |
| 2026-04-20 07:20 | 24.34853 | 56.46426 | 26926 ft | 492 kts | 129° |
| 2026-04-20 07:20 | 24.32725 | 56.49373 | 27234 ft | 494 kts | 129° |
| 2026-04-20 07:20 | 24.30588 | 56.52332 | 27547 ft | 496 kts | 129° |
| 2026-04-20 07:21 | 24.28442 | 56.55300 | 27846 ft | 497 kts | 129° |
| 2026-04-20 07:21 | 24.26284 | 56.58286 | 28137 ft | 500 kts | 129° |
| 2026-04-20 07:21 | 24.24146 | 56.61240 | 28434 ft | 501 kts | 129° |
| 2026-04-20 07:21 | 24.21976 | 56.64239 | 28723 ft | 503 kts | 129° |
| 2026-04-20 07:22 | 24.19794 | 56.67251 | 28999 ft | 505 kts | 129° |
| 2026-04-20 07:22 | 24.17601 | 56.70276 | 29276 ft | 507 kts | 129° |
| 2026-04-20 07:22 | 24.15404 | 56.73306 | 29520 ft | 508 kts | 129° |
| 2026-04-20 07:22 | 24.13200 | 56.76344 | 29792 ft | 510 kts | 129° |
| 2026-04-20 07:23 | 24.10992 | 56.79385 | 30077 ft | 510 kts | 129° |
| 2026-04-20 07:23 | 24.08787 | 56.82420 | 30385 ft | 509 kts | 129° |
| 2026-04-20 07:23 | 24.06508 | 56.85376 | 30589 ft | 508 kts | 136° |
| 2026-04-20 07:23 | 24.03778 | 56.87831 | 30765 ft | 508 kts | 148° |
| 2026-04-20 07:24 | 24.00686 | 56.89682 | 31000 ft | 506 kts | 158° |
| 2026-04-20 07:24 | 23.97367 | 56.90909 | 31218 ft | 502 kts | 168° |
| 2026-04-20 07:24 | 23.94000 | 56.91767 | 31368 ft | 504 kts | 168° |
| 2026-04-20 07:24 | 23.90574 | 56.92618 | 31543 ft | 506 kts | 168° |
| 2026-04-20 07:25 | 23.87145 | 56.93481 | 31784 ft | 506 kts | 168° |
| 2026-04-20 07:25 | 23.80255 | 56.95280 | 31892 ft | 509 kts | 167° |
| 2026-04-20 07:26 | 23.73393 | 56.97123 | 31912 ft | 506 kts | 167° |
| 2026-04-20 07:26 | 23.66566 | 56.98960 | 31925 ft | 505 kts | 167° |
| 2026-04-20 07:27 | 23.59734 | 57.00792 | 31929 ft | 505 kts | 167° |
| 2026-04-20 07:27 | 23.52912 | 57.02615 | 31935 ft | 505 kts | 167° |
| 2026-04-20 07:28 | 23.46072 | 57.04444 | 31948 ft | 506 kts | 167° |
| 2026-04-20 07:28 | 23.39163 | 57.05872 | 31934 ft | 505 kts | 178° |
| 2026-04-20 07:29 | 23.32162 | 57.05528 | 31944 ft | 503 kts | 192° |
| 2026-04-20 07:29 | 23.25359 | 57.03911 | 31939 ft | 504 kts | 194° |
| 2026-04-20 07:30 | 23.18511 | 57.02212 | 31957 ft | 505 kts | 194° |
| 2026-04-20 07:30 | 23.11646 | 57.00555 | 31946 ft | 506 kts | 194° |
| 2026-04-20 07:31 | 23.04764 | 56.98929 | 31938 ft | 506 kts | 194° |
| 2026-04-20 07:31 | 22.97879 | 56.97313 | 31943 ft | 506 kts | 194° |
| 2026-04-20 07:32 | 22.91030 | 56.95706 | 31939 ft | 506 kts | 194° |
| 2026-04-20 07:32 | 22.84144 | 56.94090 | 31936 ft | 506 kts | 194° |
| 2026-04-20 07:33 | 22.77254 | 56.92474 | 31918 ft | 506 kts | 194° |
| 2026-04-20 07:33 | 22.70376 | 56.90862 | 31926 ft | 506 kts | 194° |
| 2026-04-20 07:34 | 22.63489 | 56.89249 | 31927 ft | 506 kts | 194° |
| 2026-04-20 07:34 | 22.56603 | 56.87640 | 31925 ft | 506 kts | 194° |
| 2026-04-20 07:35 | 22.46298 | 56.85233 | 31916 ft | 507 kts | 194° |
| 2026-04-20 07:35 | 22.39389 | 56.83622 | 31918 ft | 508 kts | 194° |
| 2026-04-20 07:36 | 22.32476 | 56.82011 | 31918 ft | 508 kts | 194° |
| 2026-04-20 07:36 | 22.25559 | 56.80401 | 31914 ft | 509 kts | 194° |
| 2026-04-20 07:37 | 22.18626 | 56.78789 | 31911 ft | 510 kts | 194° |
| 2026-04-20 07:37 | 22.11679 | 56.77175 | 31912 ft | 510 kts | 194° |
| 2026-04-20 07:38 | 22.04723 | 56.75560 | 31910 ft | 511 kts | 194° |
| 2026-04-20 07:38 | 21.97807 | 56.73958 | 31907 ft | 511 kts | 194° |
| 2026-04-20 07:39 | 21.90830 | 56.72342 | 31903 ft | 512 kts | 194° |
| 2026-04-20 07:39 | 21.83846 | 56.70726 | 31902 ft | 513 kts | 194° |
| 2026-04-20 07:40 | 21.76904 | 56.69121 | 31899 ft | 513 kts | 194° |
| 2026-04-20 07:40 | 21.69909 | 56.67506 | 31896 ft | 514 kts | 194° |
| 2026-04-20 07:41 | 21.64095 | 56.66165 | 31893 ft | 514 kts | 194° |
| 2026-04-20 07:41 | 21.57086 | 56.64549 | 31893 ft | 515 kts | 194° |
| 2026-04-20 07:42 | 21.50081 | 56.62936 | 31887 ft | 515 kts | 194° |
| 2026-04-20 07:42 | 21.43099 | 56.61330 | 31887 ft | 516 kts | 194° |
| 2026-04-20 07:43 | 21.36079 | 56.59717 | 31889 ft | 516 kts | 194° |
| 2026-04-20 07:43 | 21.29048 | 56.58103 | 31884 ft | 517 kts | 194° |
| 2026-04-20 07:44 | 21.22013 | 56.56490 | 31885 ft | 517 kts | 194° |
| 2026-04-20 07:44 | 21.14967 | 56.54875 | 31877 ft | 518 kts | 194° |
| 2026-04-20 07:45 | 21.07911 | 56.53260 | 31875 ft | 518 kts | 194° |
| 2026-04-20 07:45 | 21.00861 | 56.51647 | 31879 ft | 518 kts | 194° |
| 2026-04-20 07:46 | 20.93839 | 56.50043 | 31873 ft | 519 kts | 195° |
| 2026-04-20 07:46 | 20.86764 | 56.48428 | 31871 ft | 520 kts | 195° |
| 2026-04-20 07:47 | 20.79686 | 56.46814 | 31867 ft | 520 kts | 195° |
| 2026-04-20 07:47 | 20.72592 | 56.45198 | 31864 ft | 521 kts | 195° |
| 2026-04-20 07:48 | 20.65545 | 56.43594 | 31863 ft | 521 kts | 195° |
| 2026-04-20 07:48 | 20.58442 | 56.41979 | 31863 ft | 521 kts | 195° |
| 2026-04-20 07:49 | 20.51332 | 56.40363 | 31863 ft | 522 kts | 195° |
| 2026-04-20 07:49 | 20.44216 | 56.38748 | 31862 ft | 522 kts | 195° |
| 2026-04-20 07:50 | 20.37101 | 56.37135 | 31863 ft | 523 kts | 195° |
| 2026-04-20 07:50 | 20.29987 | 56.35523 | 31866 ft | 523 kts | 195° |
| 2026-04-20 07:51 | 20.22863 | 56.33911 | 31861 ft | 523 kts | 195° |
| 2026-04-20 07:51 | 20.15777 | 56.32309 | 31866 ft | 524 kts | 195° |
| 2026-04-20 07:52 | 20.08599 | 56.30688 | 31864 ft | 524 kts | 195° |
| 2026-04-20 07:52 | 20.01508 | 56.29048 | 31864 ft | 523 kts | 198° |
| 2026-04-20 07:53 | 19.94720 | 56.26410 | 31870 ft | 517 kts | 209° |
| 2026-04-20 07:53 | 19.88489 | 56.22691 | 31868 ft | 513 kts | 216° |
| 2026-04-20 07:54 | 19.82412 | 56.18701 | 31866 ft | 513 kts | 216° |
| 2026-04-20 07:54 | 19.76324 | 56.14731 | 31867 ft | 514 kts | 216° |
| 2026-04-20 07:55 | 19.70211 | 56.10785 | 31865 ft | 514 kts | 216° |
| 2026-04-20 07:55 | 19.64120 | 56.06872 | 31865 ft | 514 kts | 216° |
| 2026-04-20 07:56 | 19.57986 | 56.02934 | 31866 ft | 515 kts | 216° |
| 2026-04-20 07:56 | 19.51860 | 55.99004 | 31859 ft | 515 kts | 216° |
| 2026-04-20 07:57 | 19.45734 | 55.95075 | 31865 ft | 515 kts | 216° |
| 2026-04-20 07:57 | 19.39595 | 55.91141 | 31862 ft | 515 kts | 216° |
| 2026-04-20 07:58 | 19.33458 | 55.87212 | 31860 ft | 515 kts | 216° |
| 2026-04-20 07:58 | 19.27327 | 55.83291 | 31865 ft | 515 kts | 216° |
| 2026-04-20 07:59 | 19.21190 | 55.79369 | 31867 ft | 515 kts | 216° |
| 2026-04-20 07:59 | 19.15093 | 55.75476 | 31863 ft | 515 kts | 216° |
| 2026-04-20 08:00 | 19.08941 | 55.71552 | 31867 ft | 516 kts | 216° |
| 2026-04-20 08:00 | 19.02800 | 55.67638 | 31867 ft | 516 kts | 216° |
| 2026-04-20 08:01 | 18.96648 | 55.63721 | 31863 ft | 516 kts | 216° |
| 2026-04-20 08:01 | 18.90495 | 55.59805 | 31877 ft | 517 kts | 216° |
| 2026-04-20 08:02 | 18.84333 | 55.55889 | 31868 ft | 517 kts | 216° |
| 2026-04-20 08:02 | 18.78195 | 55.51991 | 31871 ft | 517 kts | 216° |
| 2026-04-20 08:03 | 18.72020 | 55.48071 | 31858 ft | 518 kts | 216° |
| 2026-04-20 08:03 | 18.65841 | 55.44154 | 31857 ft | 518 kts | 216° |
| 2026-04-20 08:04 | 18.59691 | 55.40258 | 31868 ft | 518 kts | 216° |
| 2026-04-20 08:04 | 18.53514 | 55.36348 | 31877 ft | 518 kts | 216° |
| 2026-04-20 08:05 | 18.47326 | 55.32435 | 31867 ft | 519 kts | 216° |
| 2026-04-20 08:05 | 18.41125 | 55.28516 | 31870 ft | 519 kts | 216° |
| 2026-04-20 08:06 | 18.34925 | 55.24603 | 31861 ft | 520 kts | 216° |
| 2026-04-20 08:06 | 18.28722 | 55.20690 | 31870 ft | 520 kts | 216° |
| 2026-04-20 08:07 | 18.22516 | 55.16778 | 31865 ft | 520 kts | 216° |
| 2026-04-20 08:07 | 18.16309 | 55.12869 | 31867 ft | 520 kts | 216° |
| 2026-04-20 08:08 | 18.10094 | 55.08959 | 31871 ft | 520 kts | 216° |
| 2026-04-20 08:08 | 18.03910 | 55.05071 | 31873 ft | 521 kts | 216° |
| 2026-04-20 08:09 | 17.97684 | 55.01160 | 31875 ft | 521 kts | 216° |
| 2026-04-20 08:09 | 17.91469 | 54.97259 | 31875 ft | 521 kts | 216° |
| 2026-04-20 08:10 | 17.85242 | 54.93354 | 31870 ft | 521 kts | 216° |
| 2026-04-20 08:10 | 17.79025 | 54.89459 | 31876 ft | 520 kts | 216° |
| 2026-04-20 08:11 | 17.72803 | 54.85563 | 31878 ft | 520 kts | 216° |
| 2026-04-20 08:11 | 17.66581 | 54.81670 | 31876 ft | 520 kts | 216° |
| 2026-04-20 08:12 | 17.60398 | 54.77806 | 31884 ft | 520 kts | 216° |
| 2026-04-20 08:12 | 17.54182 | 54.73924 | 31881 ft | 520 kts | 216° |
| 2026-04-20 08:13 | 17.47966 | 54.70044 | 31896 ft | 520 kts | 216° |
| 2026-04-20 08:13 | 17.41749 | 54.66168 | 31904 ft | 520 kts | 216° |
| 2026-04-20 08:14 | 17.35533 | 54.62297 | 31901 ft | 519 kts | 216° |
| 2026-04-20 08:14 | 17.29364 | 54.58455 | 31901 ft | 519 kts | 216° |
| 2026-04-20 08:15 | 17.23158 | 54.54592 | 31907 ft | 519 kts | 216° |
| 2026-04-20 08:15 | 17.16940 | 54.50728 | 31904 ft | 519 kts | 216° |
| 2026-04-20 08:16 | 17.10718 | 54.46865 | 31909 ft | 519 kts | 216° |
| 2026-04-20 08:16 | 17.04495 | 54.43002 | 31903 ft | 520 kts | 216° |
| 2026-04-20 08:17 | 16.98275 | 54.39144 | 31903 ft | 520 kts | 216° |
| 2026-04-20 08:17 | 16.92087 | 54.35309 | 31901 ft | 520 kts | 216° |
| 2026-04-20 08:18 | 16.85859 | 54.31454 | 31898 ft | 520 kts | 216° |
| 2026-04-20 08:18 | 16.79625 | 54.27597 | 31892 ft | 521 kts | 216° |
| 2026-04-20 08:19 | 16.73390 | 54.23743 | 31890 ft | 521 kts | 216° |
| 2026-04-20 08:19 | 16.67153 | 54.19890 | 31886 ft | 521 kts | 216° |
| 2026-04-20 08:20 | 16.60895 | 54.16027 | 31888 ft | 521 kts | 216° |
| 2026-04-20 08:20 | 16.54654 | 54.12178 | 31890 ft | 521 kts | 216° |
| 2026-04-20 08:21 | 16.48461 | 54.08361 | 31895 ft | 521 kts | 216° |
| 2026-04-20 08:21 | 16.42212 | 54.04513 | 31894 ft | 521 kts | 216° |
| 2026-04-20 08:22 | 16.35968 | 54.00670 | 31897 ft | 521 kts | 216° |
| 2026-04-20 08:22 | 16.29720 | 53.96828 | 31901 ft | 521 kts | 216° |
| 2026-04-20 08:23 | 16.23469 | 53.92987 | 31903 ft | 521 kts | 216° |
| 2026-04-20 08:23 | 16.17258 | 53.89174 | 31902 ft | 521 kts | 216° |
| 2026-04-20 08:24 | 16.11002 | 53.85335 | 31906 ft | 521 kts | 216° |
| 2026-04-20 08:24 | 16.04752 | 53.81503 | 31911 ft | 521 kts | 216° |
| 2026-04-20 08:25 | 15.98532 | 53.77692 | 31911 ft | 522 kts | 216° |
| 2026-04-20 08:25 | 15.92271 | 53.73859 | 31913 ft | 522 kts | 216° |
| 2026-04-20 08:26 | 15.86018 | 53.70034 | 31913 ft | 522 kts | 216° |
| 2026-04-20 08:26 | 15.79758 | 53.66207 | 31909 ft | 522 kts | 216° |
| 2026-04-20 08:27 | 15.73495 | 53.62382 | 31912 ft | 522 kts | 216° |
| 2026-04-20 08:27 | 15.67232 | 53.58559 | 31912 ft | 522 kts | 216° |
| 2026-04-20 08:28 | 15.60966 | 53.54736 | 31909 ft | 522 kts | 216° |
| 2026-04-20 08:28 | 15.55761 | 53.51564 | 31923 ft | 522 kts | 216° |
| 2026-04-20 08:29 | 15.49500 | 53.47749 | 31920 ft | 522 kts | 216° |
| 2026-04-20 08:29 | 15.42205 | 53.43309 | 31906 ft | 522 kts | 216° |
| 2026-04-20 08:30 | 15.37002 | 53.40144 | 31905 ft | 522 kts | 216° |
| 2026-04-20 08:30 | 15.30731 | 53.36332 | 31922 ft | 522 kts | 216° |
| 2026-04-20 08:31 | 15.24462 | 53.32523 | 31919 ft | 522 kts | 216° |
| 2026-04-20 08:31 | 15.18194 | 53.28718 | 31900 ft | 522 kts | 216° |
| 2026-04-20 08:32 | 15.11930 | 53.24918 | 31918 ft | 522 kts | 215° |
| 2026-04-20 08:32 | 15.05651 | 53.21112 | 31913 ft | 522 kts | 215° |
| 2026-04-20 08:33 | 14.96238 | 53.15411 | 31913 ft | 522 kts | 215° |
| 2026-04-20 08:34 | 14.90007 | 53.11640 | 31911 ft | 522 kts | 215° |
| 2026-04-20 08:34 | 14.83723 | 53.07840 | 31914 ft | 523 kts | 215° |
| 2026-04-20 08:35 | 14.77447 | 53.04046 | 31916 ft | 523 kts | 215° |
| 2026-04-20 08:35 | 14.71156 | 53.00248 | 31917 ft | 523 kts | 215° |
| 2026-04-20 08:36 | 14.64870 | 52.96454 | 31915 ft | 523 kts | 215° |
| 2026-04-20 08:36 | 14.58610 | 52.92678 | 31910 ft | 523 kts | 215° |
| 2026-04-20 08:37 | 14.52323 | 52.88889 | 31915 ft | 523 kts | 215° |
| 2026-04-20 08:37 | 14.46026 | 52.85096 | 31915 ft | 523 kts | 215° |
| 2026-04-20 08:38 | 14.39732 | 52.81308 | 31914 ft | 523 kts | 215° |
| 2026-04-20 08:38 | 14.33490 | 52.77553 | 31915 ft | 523 kts | 215° |
| 2026-04-20 08:39 | 14.27198 | 52.73770 | 31911 ft | 523 kts | 214° |
| 2026-04-20 08:39 | 14.20900 | 52.69987 | 31915 ft | 523 kts | 214° |
| 2026-04-20 08:40 | 14.14596 | 52.66203 | 31915 ft | 523 kts | 214° |
| 2026-04-20 08:40 | 14.08306 | 52.62429 | 31915 ft | 523 kts | 214° |
| 2026-04-20 08:41 | 14.02050 | 52.58678 | 31916 ft | 523 kts | 214° |
| 2026-04-20 08:41 | 13.95750 | 52.54903 | 31916 ft | 523 kts | 214° |
| 2026-04-20 08:42 | 13.89457 | 52.51134 | 31915 ft | 523 kts | 214° |
| 2026-04-20 08:42 | 13.83155 | 52.47363 | 31914 ft | 523 kts | 214° |
| 2026-04-20 08:43 | 13.76890 | 52.43616 | 31911 ft | 523 kts | 214° |
| 2026-04-20 08:43 | 13.70596 | 52.39855 | 31913 ft | 523 kts | 214° |
| 2026-04-20 08:44 | 13.64298 | 52.36093 | 31912 ft | 523 kts | 214° |
| 2026-04-20 08:44 | 13.57992 | 52.32329 | 31908 ft | 523 kts | 214° |
| 2026-04-20 08:45 | 13.51685 | 52.28566 | 31914 ft | 523 kts | 214° |
| 2026-04-20 08:45 | 13.45420 | 52.24831 | 31911 ft | 523 kts | 214° |
| 2026-04-20 08:46 | 13.39118 | 52.21076 | 31911 ft | 523 kts | 214° |
| 2026-04-20 08:46 | 13.32820 | 52.17326 | 31910 ft | 523 kts | 214° |
| 2026-04-20 08:47 | 13.26522 | 52.13578 | 31913 ft | 523 kts | 214° |
| 2026-04-20 08:47 | 13.20204 | 52.09820 | 31912 ft | 523 kts | 214° |
| 2026-04-20 08:48 | 13.13904 | 52.06076 | 31910 ft | 523 kts | 214° |
| 2026-04-20 08:48 | 13.07600 | 52.02331 | 31911 ft | 523 kts | 214° |
| 2026-04-20 08:49 | 13.01337 | 51.98612 | 31911 ft | 523 kts | 214° |
| 2026-04-20 08:49 | 12.95033 | 51.94873 | 31910 ft | 523 kts | 213° |
| 2026-04-20 08:50 | 12.88722 | 51.91130 | 31909 ft | 523 kts | 213° |
| 2026-04-20 08:50 | 12.82422 | 51.87397 | 31909 ft | 523 kts | 213° |
| 2026-04-20 08:51 | 12.76106 | 51.83656 | 31907 ft | 523 kts | 213° |
| 2026-04-20 08:51 | 12.69806 | 51.79927 | 31906 ft | 523 kts | 213° |
| 2026-04-20 08:52 | 12.63500 | 51.76196 | 31908 ft | 523 kts | 213° |
| 2026-04-20 08:52 | 12.57234 | 51.72491 | 31906 ft | 523 kts | 213° |
| 2026-04-20 08:53 | 12.50923 | 51.68762 | 31905 ft | 523 kts | 213° |
| 2026-04-20 08:53 | 12.44627 | 51.65044 | 31905 ft | 523 kts | 213° |
| 2026-04-20 08:54 | 12.38318 | 51.61319 | 31906 ft | 523 kts | 213° |
| 2026-04-20 08:54 | 12.32010 | 51.57598 | 31904 ft | 523 kts | 213° |
| 2026-04-20 08:55 | 12.25740 | 51.53901 | 31902 ft | 523 kts | 213° |
| 2026-04-20 08:55 | 12.19429 | 51.50182 | 31900 ft | 523 kts | 213° |
| 2026-04-20 08:56 | 12.13127 | 51.46469 | 31900 ft | 522 kts | 213° |
| 2026-04-20 08:56 | 12.06827 | 51.42760 | 31899 ft | 522 kts | 213° |
| 2026-04-20 08:57 | 12.00576 | 51.38978 | 31901 ft | 520 kts | 216° |
| 2026-04-20 08:57 | 11.94518 | 51.34926 | 31898 ft | 520 kts | 217° |
| 2026-04-20 08:58 | 11.88489 | 51.30829 | 31898 ft | 520 kts | 217° |
| 2026-04-20 08:58 | 11.82485 | 51.26773 | 31900 ft | 520 kts | 217° |
| 2026-04-20 08:59 | 11.76432 | 51.22708 | 31900 ft | 520 kts | 217° |
| 2026-04-20 08:59 | 11.70378 | 51.18653 | 31909 ft | 521 kts | 216° |
| 2026-04-20 09:00 | 11.64315 | 51.14594 | 31902 ft | 521 kts | 216° |
| 2026-04-20 09:00 | 11.58247 | 51.10532 | 31896 ft | 521 kts | 217° |
| 2026-04-20 09:01 | 11.52194 | 51.06479 | 31915 ft | 519 kts | 216° |
| 2026-04-20 09:01 | 11.46179 | 51.02460 | 31916 ft | 520 kts | 216° |
| 2026-04-20 09:02 | 11.40124 | 50.98412 | 31923 ft | 520 kts | 216° |
| 2026-04-20 09:02 | 11.34069 | 50.94365 | 31919 ft | 520 kts | 216° |
| 2026-04-20 09:03 | 11.27997 | 50.90310 | 31916 ft | 521 kts | 216° |
| 2026-04-20 09:03 | 11.21935 | 50.86263 | 31924 ft | 521 kts | 216° |
| 2026-04-20 09:04 | 11.15902 | 50.82239 | 31914 ft | 522 kts | 216° |
| 2026-04-20 09:04 | 11.09824 | 50.78186 | 31909 ft | 522 kts | 216° |
| 2026-04-20 09:05 | 11.03742 | 50.74133 | 31909 ft | 522 kts | 216° |
| 2026-04-20 09:05 | 10.97659 | 50.70081 | 31908 ft | 522 kts | 216° |
| 2026-04-20 09:06 | 10.91585 | 50.66038 | 31904 ft | 522 kts | 216° |
| 2026-04-20 09:06 | 10.85529 | 50.62008 | 31906 ft | 522 kts | 216° |
| 2026-04-20 09:07 | 10.79445 | 50.57962 | 31900 ft | 522 kts | 216° |
| 2026-04-20 09:07 | 10.73398 | 50.53941 | 31907 ft | 522 kts | 216° |
| 2026-04-20 09:08 | 10.67319 | 50.49902 | 31906 ft | 521 kts | 216° |
| 2026-04-20 09:08 | 10.61247 | 50.45869 | 31912 ft | 521 kts | 216° |
| 2026-04-20 09:09 | 10.55170 | 50.41836 | 31906 ft | 521 kts | 216° |
| 2026-04-20 09:09 | 10.49095 | 50.37805 | 31906 ft | 521 kts | 216° |
| 2026-04-20 09:10 | 10.43020 | 50.33776 | 31905 ft | 521 kts | 215° |
| 2026-04-20 09:10 | 10.36940 | 50.29746 | 31906 ft | 521 kts | 215° |
| 2026-04-20 09:11 | 10.30896 | 50.25741 | 31899 ft | 521 kts | 215° |
| 2026-04-20 09:11 | 10.24812 | 50.21712 | 31903 ft | 522 kts | 215° |
| 2026-04-20 09:12 | 10.18732 | 50.17687 | 31903 ft | 522 kts | 215° |
| 2026-04-20 09:12 | 10.12648 | 50.13662 | 31905 ft | 522 kts | 215° |
| 2026-04-20 09:13 | 10.06607 | 50.09666 | 31900 ft | 522 kts | 215° |
| 2026-04-20 09:13 | 10.00520 | 50.05643 | 31906 ft | 522 kts | 215° |
| 2026-04-20 09:14 | 9.94434 | 50.01622 | 31901 ft | 522 kts | 215° |
| 2026-04-20 09:14 | 9.88353 | 49.97605 | 31907 ft | 521 kts | 215° |
| 2026-04-20 09:15 | 9.82272 | 49.93592 | 31907 ft | 521 kts | 215° |
| 2026-04-20 09:15 | 9.76191 | 49.89579 | 31908 ft | 521 kts | 215° |
| 2026-04-20 09:16 | 9.70109 | 49.85567 | 31908 ft | 521 kts | 214° |
| 2026-04-20 09:16 | 9.64029 | 49.81559 | 31910 ft | 521 kts | 214° |
| 2026-04-20 09:17 | 9.58976 | 49.78229 | 31909 ft | 521 kts | 214° |
| 2026-04-20 09:17 | 9.52894 | 49.74223 | 31906 ft | 522 kts | 214° |
| 2026-04-20 09:18 | 9.46811 | 49.70217 | 31900 ft | 522 kts | 214° |
| 2026-04-20 09:18 | 9.40722 | 49.66209 | 31902 ft | 522 kts | 214° |
| 2026-04-20 09:19 | 9.34632 | 49.62203 | 31909 ft | 522 kts | 214° |
| 2026-04-20 09:19 | 9.28543 | 49.58199 | 31900 ft | 522 kts | 214° |
| 2026-04-20 09:20 | 9.22448 | 49.54192 | 31904 ft | 522 kts | 214° |
| 2026-04-20 09:20 | 9.16383 | 49.50208 | 31900 ft | 522 kts | 214° |
| 2026-04-20 09:21 | 9.10284 | 49.46201 | 31897 ft | 523 kts | 214° |
| 2026-04-20 09:21 | 9.04185 | 49.42197 | 31902 ft | 523 kts | 214° |
| 2026-04-20 09:22 | 8.98079 | 49.38191 | 31902 ft | 522 kts | 214° |
| 2026-04-20 09:22 | 8.91983 | 49.34192 | 31899 ft | 522 kts | 214° |
| 2026-04-20 09:23 | 8.85883 | 49.30192 | 31900 ft | 522 kts | 214° |
| 2026-04-20 09:23 | 8.79781 | 49.26192 | 31893 ft | 522 kts | 214° |
| 2026-04-20 09:24 | 8.73684 | 49.22198 | 31891 ft | 522 kts | 214° |
| 2026-04-20 09:24 | 8.67617 | 49.18224 | 31891 ft | 522 kts | 214° |
| 2026-04-20 09:25 | 8.61518 | 49.14231 | 31887 ft | 522 kts | 214° |
| 2026-04-20 09:25 | 8.55424 | 49.10243 | 31888 ft | 521 kts | 214° |
| 2026-04-20 09:26 | 8.49331 | 49.06258 | 31887 ft | 521 kts | 214° |
| 2026-04-20 09:26 | 8.43281 | 49.02302 | 31885 ft | 521 kts | 214° |
| 2026-04-20 09:27 | 8.37196 | 48.98324 | 31885 ft | 521 kts | 214° |
| 2026-04-20 09:27 | 8.31105 | 48.94344 | 31887 ft | 521 kts | 214° |
| 2026-04-20 09:28 | 8.25019 | 48.90368 | 31886 ft | 520 kts | 214° |
| 2026-04-20 09:28 | 8.18928 | 48.86391 | 31891 ft | 520 kts | 214° |
| 2026-04-20 09:29 | 8.12850 | 48.82424 | 31891 ft | 520 kts | 214° |
| 2026-04-20 09:29 | 8.06809 | 48.78483 | 31891 ft | 520 kts | 214° |
| 2026-04-20 09:30 | 8.00725 | 48.74515 | 31890 ft | 520 kts | 214° |
| 2026-04-20 09:30 | 7.94675 | 48.70571 | 31887 ft | 520 kts | 214° |
| 2026-04-20 09:31 | 7.88602 | 48.66612 | 31883 ft | 520 kts | 214° |
| 2026-04-20 09:31 | 7.82525 | 48.62653 | 31883 ft | 520 kts | 213° |
| 2026-04-20 09:32 | 7.76443 | 48.58692 | 31877 ft | 520 kts | 213° |
| 2026-04-20 09:32 | 7.70364 | 48.54734 | 31881 ft | 520 kts | 213° |
| 2026-04-20 09:33 | 7.64281 | 48.50775 | 31876 ft | 520 kts | 213° |
| 2026-04-20 09:33 | 7.58199 | 48.46818 | 31870 ft | 520 kts | 213° |
| 2026-04-20 09:34 | 7.52148 | 48.42882 | 31876 ft | 520 kts | 213° |
| 2026-04-20 09:34 | 7.43018 | 48.36947 | 31868 ft | 521 kts | 213° |
| 2026-04-20 09:35 | 7.36927 | 48.32989 | 31869 ft | 521 kts | 213° |
| 2026-04-20 09:35 | 7.30827 | 48.29026 | 31867 ft | 521 kts | 213° |
| 2026-04-20 09:36 | 7.24731 | 48.25067 | 31862 ft | 521 kts | 213° |
| 2026-04-20 09:36 | 7.18623 | 48.21102 | 31863 ft | 522 kts | 213° |
| 2026-04-20 09:37 | 7.12561 | 48.17167 | 31861 ft | 522 kts | 213° |
| 2026-04-20 09:37 | 7.06459 | 48.13209 | 31857 ft | 522 kts | 213° |
| 2026-04-20 09:38 | 7.00349 | 48.09246 | 31857 ft | 522 kts | 213° |
| 2026-04-20 09:38 | 6.94242 | 48.05286 | 31859 ft | 522 kts | 213° |
| 2026-04-20 09:39 | 6.88133 | 48.01327 | 31857 ft | 522 kts | 213° |
| 2026-04-20 09:39 | 6.82018 | 47.97365 | 31864 ft | 523 kts | 213° |
| 2026-04-20 09:40 | 6.75907 | 47.93406 | 31854 ft | 523 kts | 213° |
| 2026-04-20 09:40 | 6.69827 | 47.89468 | 31858 ft | 523 kts | 213° |
| 2026-04-20 09:41 | 6.63703 | 47.85504 | 31858 ft | 523 kts | 213° |
| 2026-04-20 09:41 | 6.57586 | 47.81545 | 31855 ft | 523 kts | 213° |